createdAt,value
2022-11-23T00:00:59.311Z,97.78
2022-11-23T00:06:34.083Z,106.50
2022-11-23T00:11:56.286Z,98.87
2022-11-23T00:17:20.645Z,115.13
2022-11-23T00:22:43.607Z,105.63
2022-11-23T00:28:05.922Z,92.87
2022-11-23T00:33:28.126Z,110.45
2022-11-23T00:38:51.799Z,105.57
2022-11-23T00:44:14.472Z,108.77
2022-11-23T00:49:36.796Z,101.43
2022-11-23T00:54:59.021Z,99.10
2022-11-23T01:00:24.452Z,112.40
2022-11-23T01:05:48.302Z,108.37
2022-11-23T01:11:14.545Z,103.75
2022-11-23T01:16:44.348Z,108.37
2022-11-23T01:27:24.219Z,123.10
2022-11-23T01:32:48.422Z,123.77
2022-11-23T01:38:16.663Z,121.10
2022-11-23T01:43:36.068Z,117.70
2022-11-23T01:49:09.836Z,127.38
2022-11-23T01:54:51.877Z,127.90
2022-11-23T02:00:14.870Z,132.87
2022-11-23T02:05:46.402Z,137.63
2022-11-23T02:11:09.929Z,137.67
2022-11-23T02:16:34.302Z,137.10
2022-11-23T02:21:57.656Z,138.70
2022-11-23T02:27:20.616Z,135.53
2022-11-23T02:32:45.130Z,137.97
2022-11-23T02:38:11.846Z,145.15
2022-11-23T02:55:01.233Z,134.27
2022-11-23T03:00:24.770Z,134.33
2022-11-23T03:05:48.168Z,127.37
2022-11-23T03:11:10.372Z,130.13
2022-11-23T03:16:34.308Z,134.67
2022-11-23T03:21:56.998Z,127.00
2022-11-23T03:27:19.955Z,120.70
2022-11-23T03:32:42.581Z,122.50
2022-11-23T03:38:07.323Z,123.33
2022-11-23T03:43:31.213Z,123.90
2022-11-23T03:48:54.861Z,118.20
2022-11-23T03:54:17.308Z,119.73
2022-11-23T03:59:39.522Z,122.27
2022-11-23T04:05:02.460Z,123.03
2022-11-23T04:10:26.873Z,135.37
2022-11-23T04:15:49.517Z,111.23
2022-11-23T04:21:11.817Z,119.80
2022-11-23T04:26:34.740Z,115.40
2022-11-23T04:31:56.953Z,112.95
2022-11-23T04:37:19.984Z,108.50
2022-11-23T04:42:43.050Z,112.70
2022-11-23T04:48:05.322Z,117.57
2022-11-23T04:53:27.707Z,109.63
2022-11-23T04:58:49.894Z,109.35
2022-11-23T05:04:17.620Z,106.05
2022-11-23T05:09:39.375Z,106.43
2022-11-23T05:15:01.588Z,103.93
2022-11-23T05:20:26.123Z,103.87
2022-11-23T05:25:50.839Z,100.00
2022-11-23T05:31:13.715Z,100.05
2022-11-23T05:36:40.825Z,108.40
2022-11-23T05:41:59.982Z,107.45
2022-11-23T05:47:22.764Z,108.60
2022-11-23T05:52:45.518Z,107.92
2022-11-23T05:58:09.472Z,114.82
2022-11-23T06:03:32.217Z,104.03
2022-11-23T06:08:54.523Z,107.92
2022-11-23T06:14:17.432Z,109.23
2022-11-23T06:19:42.036Z,107.55
2022-11-23T06:25:04.215Z,113.00
2022-11-23T06:30:28.313Z,104.40
2022-11-23T06:36:01.634Z,98.30
2022-11-23T06:41:29.513Z,106.32
2022-11-23T06:46:50.379Z,106.47
2022-11-23T06:52:14.069Z,114.63
2022-11-23T06:57:36.296Z,98.27
2022-11-23T07:03:06.008Z,99.43
2022-11-23T07:08:30.817Z,94.75
2022-11-23T07:13:56.015Z,106.27
2022-11-23T07:19:20.329Z,98.30
2022-11-23T07:24:46.745Z,108.50
2022-11-23T07:30:07.773Z,101.95
2022-11-23T07:35:33.506Z,107.95
2022-11-23T07:40:56.672Z,107.37
2022-11-23T07:46:21.358Z,101.47
2022-11-23T07:51:44.296Z,101.38
2022-11-23T07:57:07.983Z,106.00
2022-11-23T08:02:33.687Z,107.58
2022-11-23T08:07:57.620Z,113.03
2022-11-23T08:13:21.553Z,105.32
2022-11-23T08:18:45.043Z,94.73
2022-11-23T08:24:09.772Z,112.93
2022-11-23T08:29:34.174Z,110.20
2022-11-23T08:34:58.892Z,114.77
2022-11-23T08:40:25.813Z,108.83
2022-11-23T08:45:50.463Z,102.70
2022-11-23T08:51:14.880Z,110.32
2022-11-23T08:56:37.844Z,94.75
2022-11-23T09:02:01.010Z,113.30
2022-11-23T09:07:23.432Z,103.50
2022-11-23T09:12:45.992Z,105.27
2022-11-23T09:18:09.474Z,115.40
2022-11-23T09:23:32.112Z,97.00
2022-11-23T09:28:54.307Z,106.27
2022-11-23T09:34:19.049Z,99.33
2022-11-23T09:39:41.769Z,96.87
2022-11-23T09:45:31.331Z,96.42
2022-11-23T09:51:00.519Z,98.53
2022-11-23T09:56:29.210Z,92.50
2022-11-23T10:01:51.522Z,95.87
2022-11-23T10:07:21.195Z,86.40
2022-11-23T10:13:27.444Z,84.60
2022-11-23T10:19:12.403Z,74.77
2022-11-23T10:24:51.078Z,76.70
2022-11-23T10:30:16.057Z,81.63
2022-11-23T10:35:47.640Z,76.67
2022-11-23T10:46:57.357Z,90.50
2022-11-23T10:52:33.805Z,82.43
2022-11-23T10:58:04.947Z,80.57
2022-11-23T11:03:37.379Z,86.47
2022-11-23T11:09:16.265Z,81.25
2022-11-23T11:14:43.383Z,81.30
2022-11-23T11:20:04.472Z,82.80
2022-11-23T11:25:45.364Z,73.40
2022-11-23T11:31:30.154Z,80.70
2022-11-23T11:37:09.203Z,76.30
2022-11-23T11:42:53.570Z,75.80
2022-11-23T11:48:29.583Z,77.67
2022-11-23T11:53:59.912Z,81.63
2022-11-23T12:05:18.284Z,77.30
2022-11-23T12:10:51.026Z,75.03
2022-11-23T12:16:36.954Z,75.87
2022-11-23T12:22:32.898Z,74.53
2022-11-23T12:28:21.157Z,80.23
2022-11-23T12:34:13.698Z,72.87
2022-11-23T12:40:17.127Z,76.03
2022-11-23T12:46:09.958Z,80.13
2022-11-23T12:51:55.668Z,81.83
2022-11-23T12:57:38.901Z,76.03
2022-11-23T13:03:48.000Z,75.00
2022-11-23T13:09:23.818Z,80.37
2022-11-23T13:15:26.035Z,88.55
2022-11-23T13:21:12.421Z,81.50
2022-11-23T13:26:40.419Z,69.87
2022-11-23T13:32:06.305Z,66.67
2022-11-23T13:37:28.743Z,60.05
2022-11-23T13:42:53.500Z,64.87
2022-11-23T13:54:03.539Z,61.83
2022-11-23T13:59:39.008Z,60.45
2022-11-23T14:05:07.236Z,65.45
2022-11-23T14:10:38.063Z,60.58
2022-11-23T14:16:08.813Z,68.10
2022-11-23T14:21:51.202Z,66.77
2022-11-23T14:27:47.575Z,73.80
2022-11-23T14:33:18.523Z,58.65
2022-11-23T14:39:08.115Z,66.10
2022-11-23T14:44:38.618Z,64.07
2022-11-23T14:50:14.637Z,67.57
2022-11-23T14:55:43.957Z,71.60
2022-11-23T15:01:10.117Z,70.20
2022-11-23T15:06:44.070Z,63.75
2022-11-23T15:12:17.540Z,66.28
2022-11-23T15:17:41.306Z,60.35
2022-11-23T15:23:04.152Z,71.70
2022-11-23T15:28:34.921Z,67.40
2022-11-23T15:34:05.979Z,65.12
2022-11-23T15:39:38.052Z,66.50
2022-11-23T15:45:00.289Z,63.25
2022-11-23T15:50:29.867Z,70.10
2022-11-23T15:55:51.043Z,66.53
2022-11-23T16:01:22.417Z,62.67
2022-11-23T16:06:56.255Z,70.87
2022-11-23T16:12:30.650Z,71.02
2022-11-23T16:17:54.727Z,69.32
2022-11-23T16:23:18.680Z,77.82
2022-11-23T16:28:44.372Z,76.35
2022-11-23T16:34:06.748Z,71.55
2022-11-23T16:39:30.074Z,79.60
2022-11-23T16:44:52.333Z,83.87
2022-11-23T16:50:16.593Z,84.47
2022-11-23T16:55:42.268Z,70.77
2022-11-23T17:01:03.684Z,85.80
2022-11-23T17:06:27.505Z,80.65
2022-11-23T17:11:54.238Z,85.57
2022-11-23T17:17:17.721Z,79.12
2022-11-23T17:22:39.950Z,79.73
2022-11-23T17:28:03.687Z,83.00
2022-11-23T17:33:27.817Z,80.55
2022-11-23T17:38:50.445Z,97.43
2022-11-23T17:44:14.418Z,106.95
2022-11-23T17:49:38.085Z,109.67
2022-11-23T17:55:00.280Z,101.92
2022-11-23T18:00:33.134Z,98.70
2022-11-23T18:05:55.816Z,96.82
2022-11-23T18:11:18.671Z,99.70
2022-11-23T18:16:41.938Z,91.17
2022-11-23T18:22:04.164Z,94.80
2022-11-23T18:27:29.754Z,93.50
2022-11-23T18:32:54.476Z,92.35
2022-11-23T18:38:19.162Z,90.07
2022-11-23T18:43:42.080Z,88.37
2022-11-23T18:49:05.940Z,87.13
2022-11-23T18:54:30.136Z,82.78
2022-11-23T18:59:58.814Z,95.75
2022-11-23T19:05:20.570Z,113.70
2022-11-23T19:10:44.804Z,121.05
2022-11-23T19:16:10.935Z,118.33
2022-11-23T19:21:36.881Z,126.70
2022-11-23T19:26:59.197Z,112.93
2022-11-23T19:32:21.511Z,121.40
2022-11-23T19:37:43.802Z,113.92
2022-11-23T19:43:06.646Z,119.87
2022-11-23T19:48:28.938Z,119.13
2022-11-23T19:53:55.455Z,114.08
2022-11-23T19:59:20.088Z,120.28
2022-11-23T20:04:44.560Z,117.05
2022-11-23T20:10:07.037Z,114.08
2022-11-23T20:15:29.455Z,114.00
2022-11-23T20:20:55.937Z,113.90
2022-11-23T20:26:21.562Z,112.30
2022-11-23T20:31:47.146Z,113.05
2022-11-23T20:37:09.562Z,105.37
2022-11-23T20:42:31.861Z,91.30
2022-11-23T20:47:54.930Z,116.80
2022-11-23T20:53:21.151Z,84.28
2022-11-23T20:58:44.984Z,91.13
2022-11-23T21:04:13.907Z,88.77
2022-11-23T21:09:38.305Z,86.13
2022-11-23T21:15:01.406Z,83.55
2022-11-23T21:20:23.796Z,89.17
2022-11-23T21:25:46.964Z,95.87
2022-11-23T21:31:15.144Z,87.70
2022-11-23T21:36:41.579Z,81.25
2022-11-23T21:42:07.789Z,93.82
2022-11-23T21:47:32.024Z,86.82
2022-11-23T21:52:54.309Z,87.00
2022-11-23T21:58:17.968Z,92.05
2022-11-23T22:09:39.360Z,83.20
2022-11-23T22:15:02.186Z,83.80
2022-11-23T22:20:26.926Z,90.72
2022-11-23T22:25:52.262Z,90.20
2022-11-23T22:31:16.151Z,79.62
2022-11-23T22:36:40.408Z,85.00
2022-11-23T22:42:05.213Z,79.35
2022-11-23T22:47:27.968Z,85.12
2022-11-23T22:52:52.183Z,87.45
2022-11-23T22:58:14.954Z,85.05
2022-11-23T23:03:38.006Z,86.25
2022-11-23T23:09:03.351Z,84.28
2022-11-23T23:14:26.270Z,76.12
2022-11-23T23:19:49.956Z,83.30
2022-11-23T23:25:14.631Z,78.78
2022-11-23T23:30:37.641Z,82.57
2022-11-23T23:36:00.425Z,78.85
2022-11-23T23:41:24.999Z,87.75
2022-11-23T23:46:47.811Z,89.37
2022-11-23T23:52:11.456Z,84.62
2022-11-23T23:57:35.978Z,83.55
